Terminal Aerodrome Forecast
Issued by NWS Shreveport, LA

Home | Current Version | Previous Version | Text Only | Print | Product List | Glossary On
Versions: 1 2 3 4 5 6 7 8 9 10 11 12 13
000
FTUS44 KSHV 261120
TAFSHV
TAF
KSHV 261120Z 2612/2712 11003KT P6SM SCT250
     FM261400 13004KT P6SM SCT025 SCT250
     FM261600 10006KT P6SM SCT035 SCT050 SCT250
     FM270000 09005KT P6SM SCT060 BKN250=

USA.gov is the U.S. government's official web portal to all federal, state and local government web resources and services.